Knoxville Regional Airport (TYS)

 

Airport Diagram
Current Weather/Forecast (IFR Conditions)
METAR KTYS 172153Z 00000KT 7SM -RA BKN007 OVC022 06/06 A3007 RMK AO2 SLP186 P0000 T00560056 $
TAF KTYS 171737Z 1718/1818 17005KT 2SM -RA BR OVC025 FM172000 21005KT 2SM -RA OVC008 FM180500 22005KT 2SM BR OVC003 FM181400 23003KT 4SM BR OVC007

All Charts
General
Chart Name Download
AIRPORT DIAGRAM
TAKEOFF MINIMUMS
ALTERNATE MINIMUMS
RADAR MINIMUMS
HOT SPOT

Departures
Chart Name Download
KNOXVILLE FIVE

Approaches
Chart Name Download
HI-ILS OR LOC RWY 05L
HI-ILS OR LOC RWY 23L
HI-ILS OR LOC RWY 23R
ILS OR LOC RWY 05L
ILS OR LOC RWY 23L
ILS OR LOC RWY 23R
ILS RWY 23R (SA CAT I)
ILS RWY 23R (CAT II)
RNAV (GPS) RWY 05L
RNAV (GPS) RWY 05R
RNAV (GPS) RWY 23L
RNAV (GPS) RWY 23R
HI-VOR/DME OR TACAN RWY 05L
HI-VOR/DME OR TACAN RWY 23R
VOR RWY 23L
VOR RWY 23R


Inbound Traffic (Arrivals)

No inbound traffic.


Outbound Traffic (Departures)
Callsign Aircraft Rules Destination Route
N719LS B58T/L VFR KDAB KNITS.CRG.JODAB